Time;durP1;ratioP1;P1;durP2;ratioP2;P2;SDS_P1;SDS_P2;PMS_P1;PMS_P2;Temp;Humidity;BMP_temperature;BMP_pressure;BME280_temperature;BME280_humidity;BME280_pressure;Samples;Min_cycle;Max_cycle;Signal;HPM_P1;HPM_P2
2022/05/11 04:00:18;;;;;;;18.83;17.13;;;16.30;99.90;;;;;;6079408;23;21772;31
2022/05/11 04:02:45;;;;;;;18.60;16.90;;;16.30;99.90;;;;;;4938809;29;20498;-68
2022/05/11 04:05:13;;;;;;;18.53;17.00;;;16.40;99.90;;;;;;4939512;29;20453;-68
2022/05/11 04:07:40;;;;;;;18.03;16.47;;;16.40;99.90;;;;;;4939668;29;20449;-68
2022/05/11 04:10:08;;;;;;;18.13;16.57;;;16.40;99.90;;;;;;4939718;29;20507;-68
2022/05/11 04:12:36;;;;;;;18.77;17.20;;;16.40;99.90;;;;;;4921440;29;20450;-69
2022/05/11 04:15:03;;;;;;;18.30;16.60;;;16.50;99.90;;;;;;4920327;29;20973;-68
2022/05/11 04:17:31;;;;;;;18.80;17.10;;;16.50;99.90;;;;;;4920432;29;20486;-68
2022/05/11 04:19:58;;;;;;;18.70;17.10;;;16.50;99.90;;;;;;4920564;29;20536;-67
2022/05/11 04:22:25;;;;;;;17.10;15.70;;;16.50;99.90;;;;;;4920403;29;20485;-68
2022/05/11 04:24:52;;;;;;;18.27;16.77;;;16.50;99.90;;;;;;4920630;29;20512;-68
2022/05/11 04:27:19;;;;;;;19.30;17.40;;;16.60;99.90;;;;;;4920391;29;20935;-68
2022/05/11 04:29:45;;;;;;;17.07;15.77;;;16.60;99.90;;;;;;4920773;29;20459;-68
2022/05/11 04:32:14;;;;;;;17.67;15.40;;;16.60;99.90;;;;;;4920211;29;20857;-67
2022/05/11 04:34:43;;;;;;;17.10;15.70;;;16.70;99.90;;;;;;4920180;29;20512;-69
2022/05/11 04:37:11;;;;;;;15.97;14.50;;;16.70;99.90;;;;;;4919913;29;20462;-68
2022/05/11 04:39:39;;;;;;;16.53;15.13;;;16.70;99.90;;;;;;4919800;29;20463;-67
2022/05/11 04:42:06;;;;;;;15.37;14.00;;;16.80;99.90;;;;;;4919701;29;20571;-68
2022/05/11 04:44:33;;;;;;;16.93;15.33;;;16.80;99.90;;;;;;4919840;29;20484;-68
2022/05/11 04:47:05;;;;;;;14.67;13.37;;;16.80;99.90;;;;;;4920031;29;20511;-71
2022/05/11 04:49:32;;;;;;;16.77;15.27;;;16.80;99.90;;;;;;4919872;29;20449;-69
2022/05/11 04:52:02;;;;;;;15.20;13.90;;;16.90;99.90;;;;;;4919611;29;20478;-68
2022/05/11 04:54:29;;;;;;;15.50;14.17;;;16.90;99.90;;;;;;4920067;29;20465;-67
2022/05/11 04:56:56;;;;;;;15.40;14.20;;;16.90;99.90;;;;;;4919790;29;20477;-68
2022/05/11 04:59:22;;;;;;;15.20;13.90;;;16.90;99.90;;;;;;4920331;29;20481;-68
2022/05/11 05:01:51;;;;;;;15.40;14.10;;;16.90;99.90;;;;;;4919334;29;20481;-68
2022/05/11 05:04:20;;;;;;;14.57;13.17;;;16.90;99.90;;;;;;4919542;29;20485;-67
2022/05/11 05:06:46;;;;;;;16.27;13.57;;;16.90;99.90;;;;;;4918961;29;20462;-70
2022/05/11 05:09:14;;;;;;;14.93;13.57;;;16.90;99.90;;;;;;4918770;29;20942;-69
2022/05/11 05:11:41;;;;;;;14.40;13.20;;;17.00;99.90;;;;;;4919243;29;20484;-69
2022/05/11 05:14:08;;;;;;;13.80;12.70;;;17.00;99.90;;;;;;4918851;29;20462;-70
2022/05/11 05:16:35;;;;;;;13.60;12.30;;;17.10;99.90;;;;;;4919084;29;20457;-70
2022/05/11 05:19:02;;;;;;;14.73;13.33;;;17.20;99.90;;;;;;4918786;29;20465;-70
2022/05/11 05:21:29;;;;;;;13.67;12.20;;;17.20;99.90;;;;;;4918826;29;20906;-70
2022/05/11 05:23:55;;;;;;;13.93;12.50;;;17.30;99.90;;;;;;4918782;29;20458;-69
2022/05/11 05:26:23;;;;;;;14.10;12.80;;;17.50;99.90;;;;;;4918700;29;20535;-70
2022/05/11 05:31:34;;;;;;;12.30;11.37;;;17.90;99.90;;;;;;4918762;29;20456;-70
2022/05/11 05:34:01;;;;;;;12.23;11.00;;;18.20;99.90;;;;;;4919019;29;20464;-70
2022/05/11 05:36:28;;;;;;;12.73;11.63;;;18.50;99.90;;;;;;4918706;29;20461;-70
2022/05/11 05:38:56;;;;;;;14.73;11.90;;;18.80;99.90;;;;;;4918631;29;20477;-69
2022/05/11 05:41:24;;;;;;;11.60;10.60;;;19.00;99.90;;;;;;4919288;29;20513;-70
2022/05/11 05:43:51;;;;;;;11.60;10.70;;;19.20;99.90;;;;;;4918981;29;20950;-70
2022/05/11 05:46:19;;;;;;;11.63;10.50;;;19.20;99.90;;;;;;4919970;29;20948;-70
2022/05/11 05:48:46;;;;;;;12.07;11.07;;;19.20;99.90;;;;;;4920862;29;20454;-70
2022/05/11 05:51:15;;;;;;;11.00;10.00;;;19.20;99.90;;;;;;4920810;29;20479;-70
2022/05/11 05:53:42;;;;;;;10.60;9.77;;;19.20;99.90;;;;;;4919960;29;20461;-69
2022/05/11 05:56:10;;;;;;;10.60;9.33;;;19.20;99.90;;;;;;4919312;29;20461;-72
2022/05/11 05:58:39;;;;;;;13.80;9.97;;;19.20;99.90;;;;;;4921047;29;20481;-71
2022/05/11 06:01:06;;;;;;;10.83;9.37;;;19.30;99.90;;;;;;4918883;29;20489;-71
2022/05/11 06:03:36;;;;;;;10.03;9.03;;;19.40;99.90;;;;;;4918499;29;20457;-70
2022/05/11 06:06:03;;;;;;;9.80;8.80;;;19.50;99.90;;;;;;4918369;29;20457;-71
2022/05/11 06:08:30;;;;;;;9.23;8.50;;;19.70;99.90;;;;;;4918725;29;20457;-72
2022/05/11 06:10:57;;;;;;;9.43;8.60;;;19.80;99.90;;;;;;4918369;29;21062;-71
2022/05/11 06:13:24;;;;;;;9.33;8.50;;;20.00;99.90;;;;;;4918369;29;20544;-72
2022/05/11 06:15:55;;;;;;;8.17;7.47;;;20.30;99.90;;;;;;4919423;29;20457;-72
2022/05/11 06:18:23;;;;;;;8.30;7.40;;;20.80;99.90;;;;;;4918742;29;20470;-71
2022/05/11 06:20:51;;;;;;;8.27;7.53;;;21.30;99.90;;;;;;4918799;29;20484;-71
2022/05/11 06:23:19;;;;;;;7.10;6.50;;;21.80;99.90;;;;;;4920434;29;20461;-71
2022/05/11 06:25:49;;;;;;;7.80;7.10;;;22.30;99.90;;;;;;4917926;29;20453;-70
2022/05/11 06:28:16;;;;;;;7.03;6.53;;;22.90;99.90;;;;;;4918126;29;20871;-70
2022/05/11 06:30:43;;;;;;;8.47;6.90;;;23.40;99.90;;;;;;4917783;29;20504;-70
2022/05/11 06:33:11;;;;;;;6.90;6.40;;;23.80;99.90;;;;;;4917909;29;20493;-70
2022/05/11 06:35:37;;;;;;;7.30;6.47;;;24.30;99.90;;;;;;4918132;29;20457;-71
2022/05/11 06:38:08;;;;;;;8.37;6.67;;;24.80;99.90;;;;;;4918212;29;20461;-70
2022/05/11 06:40:35;;;;;;;6.43;5.83;;;25.30;99.90;;;;;;4917959;29;20536;-71
2022/05/11 06:43:03;;;;;;;5.87;5.47;;;25.70;99.90;;;;;;4917743;29;20458;-70
2022/05/11 06:45:30;;;;;;;6.23;5.57;;;26.10;99.90;;;;;;4917586;29;20464;-70
2022/05/11 06:47:56;;;;;;;5.83;5.20;;;26.50;99.90;;;;;;4917910;29;20461;-70
2022/05/11 06:50:26;;;;;;;7.43;6.13;;;27.00;99.60;;;;;;4917856;29;20465;-70
2022/05/11 06:52:53;;;;;;;6.67;6.07;;;27.40;97.60;;;;;;4918650;29;20457;-71
2022/05/11 07:00:49;;;;;;;6.20;5.63;;;28.10;94.00;;;;;;4917841;29;20988;-70
2022/05/11 07:03:16;;;;;;;7.60;5.20;;;28.40;93.00;;;;;;4917835;29;20517;-70
2022/05/11 07:05:45;;;;;;;7.50;5.67;;;28.70;91.80;;;;;;4917897;29;20464;-70
2022/05/11 07:08:11;;;;;;;6.47;5.50;;;28.90;90.30;;;;;;4917881;29;20463;-69
2022/05/11 07:10:39;;;;;;;5.20;4.80;;;29.10;89.00;;;;;;4917455;29;20536;-69
2022/05/11 07:13:05;;;;;;;5.20;4.87;;;29.30;88.50;;;;;;4917748;29;20465;-69
2022/05/11 07:15:32;;;;;;;5.40;5.10;;;29.30;86.10;;;;;;4917704;29;20476;-69
2022/05/11 07:18:01;;;;;;;5.33;4.97;;;29.30;85.60;;;;;;4918202;29;20462;-69
2022/05/11 07:20:34;;;;;;;6.37;5.80;;;29.20;84.20;;;;;;4920346;29;20463;-70
2022/05/11 07:23:03;;;;;;;5.73;5.00;;;29.40;85.30;;;;;;4921489;29;20878;-70
2022/05/11 07:25:30;;;;;;;4.80;4.50;;;29.60;82.70;;;;;;4921541;29;20469;-70
2022/05/11 07:27:58;;;;;;;5.83;5.43;;;29.80;82.20;;;;;;4921183;29;20469;-70
2022/05/11 07:30:27;;;;;;;5.30;4.90;;;30.00;80.90;;;;;;4921349;29;20516;-70
2022/05/11 07:32:54;;;;;;;6.67;4.90;;;29.80;79.30;;;;;;4921092;29;20462;-70
2022/05/11 07:35:20;;;;;;;8.07;5.60;;;29.90;79.30;;;;;;4920633;29;20973;-70
2022/05/11 07:37:47;;;;;;;5.47;5.00;;;30.00;78.60;;;;;;4920838;29;20465;-69
2022/05/11 07:40:18;;;;;;;4.63;4.23;;;30.00;75.60;;;;;;4920636;29;20507;-70
2022/05/11 07:42:45;;;;;;;5.07;4.77;;;30.10;77.00;;;;;;4920680;29;20442;-70
2022/05/11 07:45:13;;;;;;;5.40;5.00;;;30.20;77.30;;;;;;4920657;29;20520;-70
2022/05/11 07:47:40;;;;;;;5.27;4.83;;;30.40;76.30;;;;;;4920778;29;20461;-69
2022/05/11 07:50:07;;;;;;;4.87;4.47;;;30.60;75.20;;;;;;4920505;29;20457;-69
2022/05/11 07:52:35;;;;;;;6.13;4.40;;;30.90;73.10;;;;;;4920572;29;20473;-70
2022/05/11 07:55:01;;;;;;;4.83;4.63;;;31.40;73.60;;;;;;4920120;29;20882;-71
2022/05/11 08:00:14;;;;;;;3.97;3.77;;;32.30;71.20;;;;;;4920258;29;20460;-70
2022/05/11 08:02:41;;;;;;;8.77;4.47;;;32.60;65.30;;;;;;4920619;29;20457;-70
2022/05/11 08:05:10;;;;;;;4.83;4.33;;;32.60;64.00;;;;;;4920201;29;20461;-70
2022/05/11 08:07:39;;;;;;;4.60;4.23;;;32.70;66.60;;;;;;4920004;29;20953;-70
2022/05/11 08:10:08;;;;;;;3.60;3.27;;;32.80;64.50;;;;;;4920161;29;20453;-70
2022/05/11 08:12:36;;;;;;;3.93;3.73;;;33.10;62.20;;;;;;4919959;29;20453;-70
2022/05/11 08:15:04;;;;;;;4.20;3.97;;;33.40;60.00;;;;;;4920113;29;20573;-70
2022/05/11 08:17:32;;;;;;;3.60;3.30;;;33.50;59.80;;;;;;4920276;29;20457;-70
2022/05/11 08:20:00;;;;;;;4.07;3.73;;;33.70;56.90;;;;;;4920306;29;20485;-70
2022/05/11 08:22:27;;;;;;;3.63;3.13;;;33.60;57.40;;;;;;4919969;29;20480;-71
2022/05/11 08:24:56;;;;;;;3.83;3.60;;;33.60;58.00;;;;;;4920232;29;20464;-70
2022/05/11 08:27:26;;;;;;;3.37;3.10;;;33.60;57.10;;;;;;4920001;29;20827;-70
2022/05/11 08:35:27;;;;;;;4.00;3.60;;;33.90;54.60;;;;;;4920226;29;20910;-70
2022/05/11 08:37:53;;;;;;;4.10;3.30;;;34.10;54.90;;;;;;4920453;29;20477;-70
2022/05/11 08:40:32;;;;;;;3.40;3.20;;;34.20;55.60;;;;;;4919930;29;20480;-70
2022/05/11 08:43:02;;;;;;;3.53;3.23;;;34.40;54.60;;;;;;4919712;29;20445;-70
2022/05/11 08:45:37;;;;;;;3.60;3.30;;;34.20;54.30;;;;;;4920162;29;20464;-70
2022/05/11 08:48:09;;;;;;;3.10;2.90;;;34.50;55.00;;;;;;4919728;29;20837;-70
2022/05/11 08:50:38;;;;;;;3.53;3.23;;;34.80;53.10;;;;;;4919268;29;20473;-70
2022/05/11 08:53:07;;;;;;;3.50;3.30;;;34.60;51.80;;;;;;4919591;29;20457;-70
2022/05/11 08:55:40;;;;;;;2.97;2.87;;;34.40;53.20;;;;;;4920015;29;20815;-70
2022/05/11 08:58:11;;;;;;;5.53;3.60;;;34.20;51.70;;;;;;4920298;29;20509;-70
2022/05/11 09:00:44;;;;;;;3.83;3.63;;;34.10;52.90;;;;;;4919269;29;20493;-70
2022/05/11 09:03:27;;;;;;;3.23;3.13;;;34.10;52.60;;;;;;4919437;29;20456;-70
2022/05/11 09:05:56;;;;;;;4.20;3.43;;;34.20;52.60;;;;;;4919436;29;20521;-70
2022/05/11 09:08:23;;;;;;;4.30;4.00;;;34.40;52.60;;;;;;4918894;29;21017;-70
2022/05/11 09:10:49;;;;;;;3.43;3.13;;;34.50;52.20;;;;;;4919435;29;20476;-70
2022/05/11 09:13:16;;;;;;;4.20;3.13;;;34.10;50.60;;;;;;4919122;29;20954;-70
2022/05/11 09:15:50;;;;;;;4.03;3.73;;;34.10;52.90;;;;;;4919044;29;20461;-70
2022/05/11 09:18:17;;;;;;;3.77;3.57;;;34.10;52.30;;;;;;4919363;29;20445;-70
2022/05/11 09:20:47;;;;;;;4.07;3.80;;;34.20;52.40;;;;;;4918446;29;20491;-70
2022/05/11 09:23:14;;;;;;;4.60;4.20;;;34.20;52.20;;;;;;4919076;29;20457;-70
2022/05/11 09:25:58;;;;;;;3.90;3.70;;;34.20;51.20;;;;;;4919607;29;20464;-70
2022/05/11 09:28:27;;;;;;;3.77;3.47;;;34.30;51.80;;;;;;4918951;29;20476;-69
2022/05/11 09:31:02;;;;;;;3.60;3.40;;;34.40;50.20;;;;;;4919037;29;20477;-69
2022/05/11 09:33:31;;;;;;;3.73;3.50;;;34.70;50.90;;;;;;4920147;29;20801;-71
2022/05/11 09:36:02;;;;;;;4.00;3.70;;;35.00;50.20;;;;;;4922459;29;20486;-71
2022/05/11 09:38:36;;;;;;;4.77;4.23;;;35.00;50.10;;;;;;4923877;29;20473;-71
2022/05/11 09:41:11;;;;;;;4.47;4.17;;;34.90;49.90;;;;;;4924899;29;20512;-70
2022/05/11 09:43:39;;;;;;;4.67;4.27;;;34.40;51.60;;;;;;4923672;29;20437;-71
2022/05/11 09:46:20;;;;;;;8.70;5.53;;;34.60;50.90;;;;;;4923258;29;20471;-70
2022/05/11 09:49:02;;;;;;;4.83;4.43;;;34.70;50.90;;;;;;4919049;29;20517;-69
2022/05/11 09:51:36;;;;;;;4.03;3.73;;;34.60;51.10;;;;;;4918678;29;20491;-70
2022/05/11 09:54:21;;;;;;;5.57;3.87;;;34.80;51.90;;;;;;4918285;29;20447;-69
2022/05/11 09:56:58;;;;;;;5.13;4.77;;;35.00;52.00;;;;;;4918719;29;20450;-69
2022/05/11 09:59:28;;;;;;;4.80;4.50;;;35.10;52.00;;;;;;4918616;29;20469;-70
2022/05/11 10:02:02;;;;;;;4.70;4.40;;;35.20;51.00;;;;;;4918168;29;20493;-70
2022/05/11 10:04:34;;;;;;;4.97;4.20;;;35.10;51.60;;;;;;4918719;29;20501;-70
2022/05/11 10:07:03;;;;;;;6.60;4.90;;;35.50;50.50;;;;;;4918288;29;20469;-70
2022/05/11 10:09:33;;;;;;;5.20;4.80;;;35.80;50.40;;;;;;4918334;29;20453;-70
2022/05/11 10:12:01;;;;;;;4.50;4.20;;;35.70;51.40;;;;;;4918168;29;20508;-70
2022/05/11 10:22:56;;;;;;;5.17;4.77;;;36.20;50.10;;;;;;4917798;29;20423;-70
2022/05/11 10:25:26;;;;;;;7.30;4.37;;;36.20;51.60;;;;;;4918248;29;20441;-69
2022/05/11 10:28:04;;;;;;;5.10;4.20;;;36.40;50.70;;;;;;4918540;29;20520;-70
2022/05/11 10:30:35;;;;;;;7.43;4.90;;;36.20;49.90;;;;;;4918501;29;20469;-70
2022/05/11 10:33:27;;;;;;;4.37;4.17;;;35.80;49.60;;;;;;4918825;29;20445;-70
2022/05/11 10:36:01;;;;;;;5.23;4.70;;;35.70;50.30;;;;;;4918439;29;20452;-71
2022/05/11 10:38:40;;;;;;;5.03;4.73;;;35.50;50.60;;;;;;4918463;29;20441;-71
2022/05/11 10:41:27;;;;;;;4.63;4.20;;;35.10;50.60;;;;;;4918526;29;20495;-70
2022/05/11 10:44:02;;;;;;;4.80;4.60;;;35.00;51.90;;;;;;4918655;29;20440;-70
2022/05/11 10:46:35;;;;;;;5.37;4.97;;;34.70;50.70;;;;;;4920019;29;20455;-70
2022/05/11 10:49:16;;;;;;;5.23;4.80;;;34.60;51.50;;;;;;4918189;29;20919;-70
2022/05/11 10:51:52;;;;;;;5.67;4.40;;;34.50;51.20;;;;;;4918266;29;20480;-70
2022/05/11 10:54:28;;;;;;;4.97;4.67;;;34.50;51.00;;;;;;4918900;29;20464;-70
2022/05/11 10:57:06;;;;;;;4.80;4.50;;;34.70;51.20;;;;;;4921862;29;20914;-70
2022/05/11 10:59:52;;;;;;;4.07;3.77;;;34.90;50.50;;;;;;4921530;29;20831;-70
2022/05/11 11:03:00;;;;;;;4.03;3.73;;;34.80;50.00;;;;;;4921184;29;21025;-70
2022/05/11 11:05:34;;;;;;;4.17;3.87;;;34.70;51.00;;;;;;4920567;29;20456;-70
2022/05/11 11:08:13;;;;;;;4.30;3.83;;;34.70;51.60;;;;;;4922060;29;20452;-70
2022/05/11 11:10:45;;;;;;;4.80;4.40;;;34.50;49.20;;;;;;4921669;29;20531;-70
2022/05/11 11:13:35;;;;;;;5.10;4.40;;;34.60;51.30;;;;;;4921661;29;20489;-70
2022/05/11 11:16:03;;;;;;;4.07;3.77;;;34.80;50.70;;;;;;4921849;29;20527;-70
2022/05/11 11:18:32;;;;;;;3.97;3.67;;;35.00;48.00;;;;;;4921194;29;20465;-70
2022/05/11 11:21:03;;;;;;;4.47;4.10;;;34.60;49.30;;;;;;4922318;29;20495;-71
2022/05/11 11:23:33;;;;;;;4.07;3.80;;;34.30;49.30;;;;;;4924251;29;20480;-70
2022/05/11 11:26:04;;;;;;;4.27;3.97;;;34.20;48.60;;;;;;4922737;29;20449;-70
2022/05/11 11:28:34;;;;;;;3.40;3.20;;;33.60;48.90;;;;;;4921650;29;20914;-70
2022/05/11 11:31:21;;;;;;;4.13;3.90;;;33.10;48.90;;;;;;4921386;29;20603;-70
2022/05/11 11:34:12;;;;;;;4.47;4.07;;;32.90;49.80;;;;;;4921128;29;20452;-70
2022/05/11 11:36:41;;;;;;;4.03;3.60;;;32.80;48.60;;;;;;4920729;29;20476;-70
2022/05/11 11:39:11;;;;;;;4.40;4.20;;;32.50;48.60;;;;;;4920571;29;20461;-70
2022/05/11 11:42:04;;;;;;;3.97;3.67;;;32.20;49.70;;;;;;4920420;29;20540;-70
2022/05/11 11:44:39;;;;;;;3.40;3.20;;;31.90;50.60;;;;;;4920722;29;20438;-70
2022/05/11 11:47:35;;;;;;;4.33;3.93;;;31.80;49.90;;;;;;4920221;29;20815;-70
2022/05/11 11:50:04;;;;;;;3.90;3.50;;;31.70;51.00;;;;;;4920240;29;20869;-70
2022/05/11 11:52:37;;;;;;;4.17;3.77;;;31.60;50.30;;;;;;4920392;29;20480;-70
2022/05/11 11:55:09;;;;;;;4.03;3.50;;;31.70;50.10;;;;;;4920589;29;20465;-70
2022/05/11 11:57:36;;;;;;;4.50;3.90;;;31.70;53.10;;;;;;4920175;29;20911;-70
2022/05/11 12:00:06;;;;;;;5.03;3.73;;;31.90;50.00;;;;;;4920163;29;20485;-70
2022/05/11 12:02:38;;;;;;;4.13;3.93;;;32.00;49.10;;;;;;4919732;29;20489;-70
2022/05/11 12:05:10;;;;;;;3.33;3.13;;;32.10;49.00;;;;;;4920290;29;20441;-70
2022/05/11 12:16:07;;;;;;;3.13;2.93;;;31.70;49.10;;;;;;4920008;29;20476;-70
2022/05/11 12:18:36;;;;;;;3.20;3.00;;;31.70;48.40;;;;;;4919910;29;20445;-70
2022/05/11 12:21:06;;;;;;;4.50;2.97;;;31.60;49.30;;;;;;4919820;29;20492;-70
2022/05/11 12:23:37;;;;;;;3.70;3.40;;;31.80;49.30;;;;;;4919884;29;20464;-71
2022/05/11 12:26:07;;;;;;;3.60;3.30;;;32.00;49.20;;;;;;4920236;29;20449;-71
2022/05/11 12:28:37;;;;;;;4.00;3.53;;;32.20;50.60;;;;;;4920024;29;20441;-71
2022/05/11 12:31:04;;;;;;;3.87;3.67;;;32.20;48.40;;;;;;4919852;29;20474;-71
2022/05/11 12:33:34;;;;;;;3.77;3.50;;;32.00;49.00;;;;;;4919811;29;20465;-70
2022/05/11 12:36:01;;;;;;;3.67;3.47;;;31.90;49.70;;;;;;4919633;29;20850;-70
2022/05/11 12:38:30;;;;;;;3.80;3.50;;;31.90;49.50;;;;;;4920197;29;20488;-70
2022/05/11 12:41:00;;;;;;;4.20;3.47;;;32.00;49.50;;;;;;4919819;29;20489;-70
2022/05/11 12:43:29;;;;;;;3.83;3.63;;;32.00;48.30;;;;;;4920314;29;20460;-70
2022/05/11 12:45:58;;;;;;;3.63;3.30;;;32.00;49.10;;;;;;4919262;29;20879;-70
2022/05/11 12:48:28;;;;;;;4.33;3.67;;;32.10;51.20;;;;;;4919487;29;20453;-70
2022/05/11 12:50:59;;;;;;;4.00;3.70;;;32.10;49.60;;;;;;4919229;29;20478;-70
2022/05/11 12:53:29;;;;;;;3.73;3.43;;;32.00;49.80;;;;;;4919348;29;20448;-70
2022/05/11 12:56:19;;;;;;;3.60;3.37;;;32.00;49.10;;;;;;4919250;29;20504;-70
2022/05/11 12:58:48;;;;;;;5.43;3.70;;;31.90;49.10;;;;;;4919013;29;20480;-69
2022/05/11 13:01:17;;;;;;;4.63;3.77;;;31.60;48.50;;;;;;4918731;29;20489;-69
2022/05/11 13:03:45;;;;;;;3.63;3.43;;;31.60;50.00;;;;;;4919015;29;20457;-69
2022/05/11 13:06:23;;;;;;;3.80;3.17;;;31.60;49.10;;;;;;4919040;29;20460;-69
2022/05/11 13:08:51;;;;;;;3.97;3.20;;;31.60;49.00;;;;;;4919596;29;20445;-69
2022/05/11 13:11:22;;;;;;;3.83;2.90;;;31.60;48.70;;;;;;4919116;29;20477;-69
2022/05/11 13:16:28;;;;;;;7.07;3.60;;;31.70;47.50;;;;;;4919267;29;20426;-70
2022/05/11 13:19:06;;;;;;;3.63;3.30;;;31.70;49.30;;;;;;4918638;29;20879;-70
2022/05/11 13:21:36;;;;;;;3.73;3.53;;;31.90;49.10;;;;;;4918955;29;20495;-70
2022/05/11 13:24:05;;;;;;;3.47;3.20;;;32.00;50.20;;;;;;4918643;29;20914;-69
2022/05/11 13:26:38;;;;;;;5.17;3.30;;;31.90;47.50;;;;;;4919737;29;20465;-69
2022/05/11 13:29:15;;;;;;;3.30;3.00;;;31.80;47.00;;;;;;4921494;29;20473;-69
2022/05/11 13:31:42;;;;;;;6.00;3.70;;;31.80;48.10;;;;;;4921756;29;20224;-69
2022/05/11 13:34:29;;;;;;;3.90;3.73;;;31.70;48.70;;;;;;4920482;29;20468;-70
2022/05/11 13:36:59;;;;;;;3.93;3.60;;;31.60;48.40;;;;;;4921987;29;20441;-71
2022/05/11 13:39:34;;;;;;;3.80;3.60;;;31.50;48.10;;;;;;4921355;29;20458;-70
2022/05/11 13:42:05;;;;;;;3.70;3.37;;;31.30;47.50;;;;;;4920918;29;20489;-70
2022/05/11 13:44:39;;;;;;;3.83;3.53;;;31.00;47.50;;;;;;4921545;29;20445;-69
2022/05/11 13:50:32;;;;;;;3.92;3.30;;;30.80;48.30;;;;;;4920344;29;20800;-69
2022/05/11 13:53:00;;;;;;;8.93;3.80;;;30.80;49.30;;;;;;4920355;29;20292;-69
2022/05/11 13:55:31;;;;;;;3.47;3.20;;;30.90;51.30;;;;;;4920629;29;20453;-70
2022/05/11 13:58:23;;;;;;;4.77;4.03;;;31.00;50.10;;;;;;4920380;29;20497;-70
2022/05/11 14:00:50;;;;;;;3.80;3.60;;;31.10;49.80;;;;;;4919774;29;20528;-70
2022/05/11 14:03:27;;;;;;;3.60;3.33;;;31.30;52.60;;;;;;4920757;29;20460;-69
2022/05/11 14:05:54;;;;;;;3.27;3.07;;;31.40;52.40;;;;;;4920620;29;20447;-69
2022/05/11 14:08:20;;;;;;;3.60;2.60;;;31.40;47.90;;;;;;4919797;29;20470;-69
2022/05/11 14:10:47;;;;;;;3.43;3.10;;;31.40;48.90;;;;;;4921540;29;20265;-70
2022/05/11 14:13:15;;;;;;;3.40;3.20;;;31.50;49.20;;;;;;4922883;29;20457;-71
2022/05/11 14:15:42;;;;;;;3.50;3.30;;;31.50;47.80;;;;;;4922018;29;20453;-71
2022/05/11 14:18:12;;;;;;;3.03;2.80;;;31.50;48.00;;;;;;4920877;29;20473;-70
2022/05/11 14:20:38;;;;;;;3.80;3.50;;;31.20;45.40;;;;;;4920966;29;21015;-70
2022/05/11 14:23:06;;;;;;;3.50;3.30;;;31.00;45.80;;;;;;4919292;29;20978;-70
2022/05/11 14:25:34;;;;;;;3.40;3.20;;;30.90;47.10;;;;;;4923157;29;20466;-69
2022/05/11 14:28:00;;;;;;;2.93;2.73;;;30.70;47.50;;;;;;4924178;29;20777;-70
2022/05/11 14:30:28;;;;;;;3.23;2.93;;;30.60;45.90;;;;;;4921211;29;20453;-70
2022/05/11 14:32:55;;;;;;;3.33;3.13;;;30.50;46.00;;;;;;4920470;29;20943;-70
2022/05/11 14:35:26;;;;;;;2.75;2.55;;;30.50;46.10;;;;;;4920065;29;20460;-69
2022/05/11 14:37:54;;;;;;;3.90;3.00;;;30.40;45.10;;;;;;4920418;29;20182;-70
2022/05/11 14:40:23;;;;;;;4.50;3.37;;;30.30;45.50;;;;;;4920136;29;20461;-69
2022/05/11 14:42:51;;;;;;;2.80;2.60;;;30.30;45.30;;;;;;4921296;29;20458;-71
2022/05/11 14:45:18;;;;;;;3.53;2.80;;;30.20;44.30;;;;;;4921993;29;20446;-71
2022/05/11 14:48:00;;;;;;;3.20;3.00;;;30.20;45.10;;;;;;4921565;29;20464;-71
2022/05/11 14:50:27;;;;;;;3.00;2.90;;;30.20;45.60;;;;;;4921644;29;20448;-71
2022/05/11 14:52:56;;;;;;;3.10;2.90;;;30.20;45.20;;;;;;4920854;29;20461;-70
2022/05/11 14:55:23;;;;;;;3.30;3.10;;;30.30;45.80;;;;;;4921546;29;20491;-68
2022/05/11 15:03:21;;;;;;;3.30;3.07;;;30.30;48.00;;;;;;4922938;29;20450;-69
2022/05/11 15:05:48;;;;;;;7.87;3.80;;;30.20;46.80;;;;;;4923470;29;20536;-69
2022/05/11 15:08:16;;;;;;;3.10;2.80;;;30.00;47.00;;;;;;4923870;29;20464;-69
2022/05/11 15:10:42;;;;;;;3.83;3.13;;;29.90;47.10;;;;;;4922954;29;20500;-69
2022/05/11 15:16:03;;;;;;;3.73;2.97;;;29.80;48.00;;;;;;4897443;29;20467;-68
2022/05/11 15:18:31;;;;;;;4.80;3.63;;;29.90;48.90;;;;;;4921429;29;20457;-69
2022/05/11 15:20:58;;;;;;;3.90;3.60;;;30.00;49.70;;;;;;4921222;29;20866;-68
2022/05/11 15:23:24;;;;;;;4.43;4.13;;;30.00;50.20;;;;;;4920809;29;20468;-70
2022/05/11 15:25:52;;;;;;;3.60;3.30;;;30.00;51.20;;;;;;4920941;29;20464;-69
2022/05/11 15:28:19;;;;;;;4.00;3.80;;;30.00;52.00;;;;;;4922978;29;20453;-71
2022/05/11 15:30:47;;;;;;;3.43;3.23;;;30.10;51.60;;;;;;4921888;29;20481;-71
2022/05/11 15:33:16;;;;;;;3.50;3.20;;;30.10;50.70;;;;;;4922341;29;20453;-71
2022/05/11 15:35:46;;;;;;;3.40;3.17;;;30.10;50.20;;;;;;4921788;29;20480;-70
2022/05/11 15:38:14;;;;;;;6.83;3.47;;;30.00;49.50;;;;;;4919972;29;20461;-72
2022/05/11 15:40:41;;;;;;;3.67;3.37;;;30.00;49.80;;;;;;4921337;29;20505;-72
2022/05/11 15:43:09;;;;;;;3.67;3.37;;;29.80;50.30;;;;;;4923796;29;20472;-73
2022/05/11 15:45:36;;;;;;;4.20;3.83;;;29.70;50.80;;;;;;4922908;29;20460;-70
2022/05/11 15:48:04;;;;;;;3.20;3.00;;;29.70;50.80;;;;;;4926287;29;20475;-72
2022/05/11 15:50:33;;;;;;;3.70;3.30;;;29.70;50.50;;;;;;4925533;29;20465;-71
2022/05/11 15:53:02;;;;;;;4.30;3.90;;;29.60;49.60;;;;;;4925489;29;20951;-70
2022/05/11 15:55:29;;;;;;;3.53;3.33;;;29.60;50.20;;;;;;4923305;29;20818;-69
2022/05/11 15:57:57;;;;;;;3.83;3.60;;;29.60;50.00;;;;;;4922876;29;20453;-73
2022/05/11 16:00:26;;;;;;;4.73;3.10;;;29.60;50.00;;;;;;4921807;29;21050;-73
2022/05/11 16:02:54;;;;;;;3.73;3.40;;;29.60;49.60;;;;;;4921864;29;20501;-73
2022/05/11 16:05:22;;;;;;;3.43;3.23;;;29.70;50.20;;;;;;4921722;29;20467;-74
2022/05/11 16:07:49;;;;;;;3.57;3.27;;;29.60;50.10;;;;;;4921958;29;20944;-70
2022/05/11 16:10:18;;;;;;;4.13;3.70;;;29.60;50.20;;;;;;4921822;29;20488;-71
2022/05/11 16:12:45;;;;;;;5.50;3.17;;;29.50;50.00;;;;;;4921025;29;20457;-69
2022/05/11 16:15:16;;;;;;;3.47;3.27;;;29.50;51.10;;;;;;4920986;29;20468;-69
2022/05/11 16:20:26;;;;;;;3.67;3.57;;;29.50;50.50;;;;;;4921060;29;21012;-71
2022/05/11 16:22:53;;;;;;;3.17;3.07;;;29.40;51.10;;;;;;4920721;29;20478;-70
2022/05/11 16:25:21;;;;;;;3.73;3.43;;;29.20;50.40;;;;;;4920724;29;20457;-70
2022/05/11 16:27:48;;;;;;;5.40;3.70;;;29.00;50.50;;;;;;4920741;29;20873;-70
2022/05/11 16:30:15;;;;;;;3.60;3.40;;;29.00;50.80;;;;;;4920752;29;20469;-70
2022/05/11 16:32:42;;;;;;;4.10;2.90;;;28.90;50.40;;;;;;4922247;29;20456;-70
2022/05/11 16:35:10;;;;;;;3.30;3.20;;;28.90;50.40;;;;;;4920969;29;20470;-69
2022/05/11 16:37:37;;;;;;;3.67;3.17;;;28.80;49.70;;;;;;4921973;29;20489;-71
2022/05/11 16:40:05;;;;;;;3.13;2.93;;;28.80;50.30;;;;;;4921785;29;20457;-69
2022/05/11 16:42:34;;;;;;;3.63;3.10;;;28.70;49.70;;;;;;4921130;29;20496;-70
2022/05/11 16:45:05;;;;;;;3.80;3.50;;;28.70;49.90;;;;;;4921429;29;21014;-69
2022/05/11 16:47:31;;;;;;;2.97;2.67;;;28.60;50.50;;;;;;4920786;29;20453;-69
2022/05/11 16:49:58;;;;;;;2.97;2.77;;;28.60;51.10;;;;;;4920715;29;20461;-70
2022/05/11 16:52:26;;;;;;;4.20;2.97;;;28.50;50.90;;;;;;4920501;29;20528;-73
2022/05/11 16:54:54;;;;;;;3.40;3.20;;;28.50;51.60;;;;;;4921531;29;20461;-73
2022/05/11 16:57:22;;;;;;;3.37;3.10;;;28.40;51.20;;;;;;4920917;29;20465;-73
2022/05/11 16:59:50;;;;;;;11.23;3.90;;;28.40;50.80;;;;;;4921201;29;20465;-73
2022/05/11 17:02:17;;;;;;;3.20;3.03;;;28.40;49.90;;;;;;4920155;29;20489;-73
2022/05/11 17:04:45;;;;;;;3.80;3.60;;;28.40;51.00;;;;;;4920748;29;20465;-73
2022/05/11 17:07:11;;;;;;;5.53;3.40;;;28.40;50.50;;;;;;4919530;29;20457;-73
2022/05/11 17:09:38;;;;;;;3.40;2.97;;;28.30;48.80;;;;;;4919792;29;20461;-74
2022/05/11 17:12:06;;;;;;;3.23;3.03;;;28.30;49.20;;;;;;4919603;29;20469;-75
2022/05/11 17:14:33;;;;;;;3.43;3.07;;;28.20;49.20;;;;;;4919425;29;20947;-74
2022/05/11 17:17:01;;;;;;;3.63;2.50;;;28.20;50.20;;;;;;4919495;29;20457;-74
2022/05/11 17:19:28;;;;;;;2.73;2.53;;;28.10;49.70;;;;;;4919598;29;20497;-73
2022/05/11 17:21:56;;;;;;;3.20;3.00;;;28.10;50.30;;;;;;4919441;29;20886;-73
2022/05/11 17:24:23;;;;;;;3.73;3.20;;;28.10;50.90;;;;;;4921802;29;20867;-74
2022/05/11 17:26:50;;;;;;;3.70;3.40;;;28.10;51.40;;;;;;4921628;29;20454;-74
2022/05/11 17:29:18;;;;;;;3.67;2.80;;;28.00;50.50;;;;;;4922063;29;20461;-75
2022/05/11 17:31:46;;;;;;;3.60;3.30;;;28.00;50.30;;;;;;4920257;29;20480;-74
2022/05/11 17:34:16;;;;;;;3.40;3.00;;;28.00;50.50;;;;;;4919896;29;20891;-74
2022/05/11 17:36:43;;;;;;;5.70;3.60;;;27.90;50.00;;;;;;4919372;29;20457;-74
2022/05/11 17:39:10;;;;;;;2.70;2.50;;;27.80;50.60;;;;;;4919939;29;20484;-73
2022/05/11 17:41:37;;;;;;;4.40;4.10;;;27.70;50.00;;;;;;4919214;29;20478;-73
2022/05/11 17:44:05;;;;;;;4.90;4.50;;;27.70;50.50;;;;;;4918603;29;20454;-73
2022/05/11 17:46:31;;;;;;;13.70;12.03;;;27.60;50.60;;;;;;4918666;29;20464;-74